Peru, Vermont
Current Conditions -  °F | °C
As of 10:54 AM on Saturday 20 Dec 2014 (Local Time) from KVSF Reporting Station
Clear Clear  
Wind Chill: 24°   Ceiling: Unl
Heat Index: 24°   Visibility: 10mi
Dew Point: 14°   Wind: 3mph
Humidity: 65%   Direction: 180°S
Pressure: 30.29"   Gusts: NA
Location:  43.23°N, 72.9°W
Report Text: KVSF 201554Z AUTO 18003KT 10SM CLR M04/M10 A3029 RMK AO2 SLP268 T10441100 TSNO
Loading
Personal Weather Stations






























Interactive Weather Map New forecast layout! Learn more

10-Day Weather Forecast

Advertisements
Track Severe Weather on mobile